createdAt,value
2022-08-17T00:02:25.455Z,18.99
2022-08-17T00:04:54.226Z,19.06
2022-08-17T00:07:21.091Z,19.04
2022-08-17T00:09:47.859Z,19.07
2022-08-17T00:12:43.284Z,19.09
2022-08-17T00:15:01.405Z,19.02
2022-08-17T00:17:30.678Z,18.90
2022-08-17T00:19:57.432Z,18.84
2022-08-17T00:22:34.430Z,18.98
2022-08-17T00:25:07.355Z,18.91
2022-08-17T00:27:34.731Z,18.94
2022-08-17T00:30:01.517Z,18.85
2022-08-17T00:33:15.280Z,18.71
2022-08-17T00:35:18.418Z,18.63
2022-08-17T00:37:45.341Z,18.47
2022-08-17T00:40:14.678Z,18.43
2022-08-17T00:42:42.782Z,18.46
2022-08-17T00:45:12.333Z,18.27
2022-08-17T00:47:39.435Z,18.36
2022-08-17T00:50:09.112Z,18.41
2022-08-17T00:52:41.456Z,18.38
2022-08-17T00:55:08.923Z,18.31
2022-08-17T00:57:42.415Z,18.34
2022-08-17T01:00:17.282Z,18.19
2022-08-17T01:02:47.232Z,18.06
2022-08-17T01:05:26.428Z,18.02
2022-08-17T01:07:55.349Z,18.11
2022-08-17T01:10:59.609Z,18.13
2022-08-17T01:13:25.936Z,18.06
2022-08-17T01:16:02.163Z,18.06
2022-08-17T01:18:29.148Z,17.96
2022-08-17T01:20:59.023Z,17.87
2022-08-17T01:23:28.940Z,17.89
2022-08-17T01:26:01.495Z,17.93
2022-08-17T01:28:55.058Z,17.91
2022-08-17T01:31:21.987Z,17.74
2022-08-17T01:33:48.745Z,17.83
2022-08-17T01:36:15.516Z,17.91
2022-08-17T01:38:42.290Z,17.76
2022-08-17T01:41:13.697Z,17.56
2022-08-17T01:43:54.916Z,17.42
2022-08-17T01:46:25.004Z,17.32
2022-08-17T01:48:51.884Z,17.28
2022-08-17T01:51:20.016Z,17.23
2022-08-17T01:53:53.802Z,17.22
2022-08-17T01:56:23.501Z,17.15
2022-08-17T01:58:50.583Z,17.09
2022-08-17T02:01:20.219Z,17.09
2022-08-17T02:03:59.680Z,17.01
2022-08-17T02:06:52.675Z,16.89
2022-08-17T02:09:29.649Z,16.89
2022-08-17T02:11:59.307Z,16.92
2022-08-17T02:14:26.967Z,16.93
2022-08-17T02:16:54.353Z,16.83
2022-08-17T02:19:22.052Z,16.70
2022-08-17T02:21:51.588Z,16.78
2022-08-17T02:25:01.043Z,16.87
2022-08-17T02:27:19.746Z,17.05
2022-08-17T02:29:46.516Z,16.99
2022-08-17T02:32:25.289Z,16.92
2022-08-17T02:34:55.464Z,16.81
2022-08-17T02:37:22.301Z,16.73
2022-08-17T02:39:49.013Z,16.83
2022-08-17T02:42:15.807Z,16.85
2022-08-17T02:44:42.664Z,16.86
2022-08-17T02:47:11.160Z,16.91
2022-08-17T02:49:38.238Z,16.84
2022-08-17T02:52:07.556Z,16.77
2022-08-17T02:54:41.221Z,16.73
2022-08-17T02:57:10.236Z,16.60
2022-08-17T02:59:38.346Z,16.65
2022-08-17T03:02:08.248Z,16.76
2022-08-17T03:04:35.488Z,16.66
2022-08-17T03:07:05.459Z,16.59
2022-08-17T03:09:32.342Z,16.57
2022-08-17T03:12:12.492Z,16.63
2022-08-17T03:14:43.762Z,16.59
2022-08-17T03:17:11.274Z,16.63
2022-08-17T03:19:44.365Z,16.64
2022-08-17T03:22:36.246Z,16.68
2022-08-17T03:24:58.101Z,16.71
2022-08-17T03:27:24.793Z,16.63
2022-08-17T03:29:55.292Z,16.69
2022-08-17T03:32:22.111Z,16.55
2022-08-17T03:34:51.791Z,16.43
2022-08-17T03:37:18.648Z,16.42
2022-08-17T03:39:45.383Z,16.44
2022-08-17T03:42:31.835Z,16.60
2022-08-17T03:45:00.401Z,16.45
2022-08-17T03:47:45.779Z,16.52
2022-08-17T03:50:32.817Z,16.60
2022-08-17T03:53:18.275Z,16.54
2022-08-17T03:56:03.373Z,16.53
2022-08-17T03:58:30.167Z,16.53
2022-08-17T04:00:57.047Z,16.52
2022-08-17T04:03:23.860Z,16.58
2022-08-17T04:05:50.644Z,16.61
2022-08-17T04:08:17.352Z,16.62
2022-08-17T04:10:44.883Z,16.61
2022-08-17T04:13:12.971Z,16.76
2022-08-17T04:15:40.102Z,16.75
2022-08-17T04:18:07.741Z,16.81
2022-08-17T04:20:37.818Z,16.83
2022-08-17T04:23:10.487Z,16.86
2022-08-17T04:25:41.733Z,16.97
2022-08-17T04:28:15.521Z,17.01
2022-08-17T04:30:45.394Z,16.98
2022-08-17T04:33:18.097Z,17.00
2022-08-17T04:35:49.032Z,17.17
2022-08-17T04:38:18.387Z,17.17
2022-08-17T04:41:03.571Z,17.03
2022-08-17T04:43:32.383Z,17.14
2022-08-17T04:46:02.363Z,17.15
2022-08-17T04:48:36.381Z,16.91
2022-08-17T04:51:26.343Z,17.11
2022-08-17T04:53:57.002Z,17.26
2022-08-17T04:56:26.123Z,17.27
2022-08-17T04:58:57.096Z,17.34
2022-08-17T05:01:28.215Z,17.47
2022-08-17T05:03:59.059Z,17.36
2022-08-17T05:06:27.605Z,17.37
2022-08-17T05:08:55.175Z,17.42
2022-08-17T05:11:23.331Z,17.43
2022-08-17T05:13:50.445Z,17.63
2022-08-17T05:16:18.151Z,17.67
2022-08-17T05:18:45.053Z,17.56
2022-08-17T05:21:11.871Z,17.61
2022-08-17T05:23:43.087Z,17.77
2022-08-17T05:26:22.562Z,17.83
2022-08-17T05:28:59.557Z,17.89
2022-08-17T05:31:29.012Z,18.06
2022-08-17T05:33:56.318Z,18.00
2022-08-17T05:36:41.963Z,18.06
2022-08-17T05:39:10.766Z,18.17
2022-08-17T05:41:44.175Z,18.20
2022-08-17T05:44:10.951Z,18.41
2022-08-17T05:46:42.009Z,18.64
2022-08-17T05:49:08.942Z,18.80
2022-08-17T05:51:50.028Z,18.93
2022-08-17T05:54:19.591Z,18.99
2022-08-17T05:57:06.988Z,18.87
2022-08-17T06:00:01.033Z,18.85
2022-08-17T06:02:48.026Z,19.01
2022-08-17T06:05:15.231Z,18.89
2022-08-17T06:08:02.592Z,19.10
2022-08-17T06:10:38.293Z,19.20
2022-08-17T06:13:59.336Z,19.41
2022-08-17T06:16:34.275Z,19.50
2022-08-17T06:19:06.430Z,19.45
2022-08-17T06:21:39.715Z,19.41
2022-08-17T06:24:20.966Z,19.46
2022-08-17T06:26:48.571Z,19.60
2022-08-17T06:29:35.140Z,19.70
2022-08-17T06:32:03.344Z,19.49
2022-08-17T06:34:30.126Z,19.63
2022-08-17T06:37:25.239Z,19.73
2022-08-17T06:40:01.169Z,19.80
2022-08-17T06:43:06.577Z,19.69
2022-08-17T06:45:49.378Z,19.93
2022-08-17T06:48:25.503Z,20.00
2022-08-17T06:51:00.078Z,20.10
2022-08-17T06:53:42.481Z,20.20
2022-08-17T06:56:11.884Z,20.38
2022-08-17T06:58:41.338Z,20.34
2022-08-17T07:01:23.324Z,20.47
2022-08-17T07:04:11.916Z,20.68
2022-08-17T07:06:54.643Z,20.82
2022-08-17T07:09:51.444Z,20.89
2022-08-17T07:12:22.837Z,20.71
2022-08-17T07:14:54.477Z,20.76
2022-08-17T07:17:47.045Z,20.76
2022-08-17T07:20:15.171Z,20.92
2022-08-17T07:22:51.923Z,21.03
2022-08-17T07:25:26.451Z,21.15
2022-08-17T07:27:59.886Z,21.26
2022-08-17T07:30:51.284Z,21.40
2022-08-17T07:33:24.430Z,21.47
2022-08-17T07:35:51.348Z,21.36
2022-08-17T07:38:33.315Z,21.55
2022-08-17T07:41:05.398Z,21.97
2022-08-17T07:43:40.978Z,22.14
2022-08-17T07:46:47.617Z,22.13
2022-08-17T07:49:14.174Z,22.06
2022-08-17T07:51:43.987Z,22.11
2022-08-17T07:54:22.701Z,22.26
2022-08-17T07:57:03.468Z,22.29
2022-08-17T07:59:35.586Z,22.20
2022-08-17T08:02:16.347Z,22.39
2022-08-17T08:05:00.488Z,22.62
2022-08-17T08:07:38.327Z,22.53
2022-08-17T08:10:10.834Z,22.34
2022-08-17T08:12:39.652Z,22.41
2022-08-17T08:15:17.806Z,22.63
2022-08-17T08:17:55.510Z,22.68
2022-08-17T08:20:52.910Z,22.68
2022-08-17T08:23:29.634Z,22.83
2022-08-17T08:26:31.778Z,23.09
2022-08-17T08:29:08.403Z,23.16
2022-08-17T08:32:02.727Z,23.24
2022-08-17T08:35:01.484Z,23.45
2022-08-17T08:37:47.295Z,23.49
2022-08-17T08:40:42.987Z,23.56
2022-08-17T08:44:06.526Z,23.57
2022-08-17T08:46:54.143Z,23.61
2022-08-17T08:50:06.113Z,23.59
2022-08-17T08:52:40.049Z,23.78
2022-08-17T08:55:34.798Z,23.99
2022-08-17T08:58:31.563Z,24.23
2022-08-17T09:00:58.831Z,24.51
2022-08-17T09:03:52.357Z,24.81
2022-08-17T09:06:47.825Z,25.35
2022-08-17T09:09:39.053Z,25.59
2022-08-17T09:12:16.884Z,25.83
2022-08-17T09:14:57.565Z,25.94
2022-08-17T09:17:33.409Z,25.84
2022-08-17T09:20:27.603Z,25.69
2022-08-17T09:23:07.160Z,25.93
2022-08-17T09:25:45.502Z,25.74
2022-08-17T09:28:20.420Z,25.62
2022-08-17T09:30:53.661Z,25.60
2022-08-17T09:33:26.885Z,25.66
2022-08-17T09:36:16.483Z,25.70
2022-08-17T09:38:49.314Z,25.67
2022-08-17T09:41:53.309Z,25.59
2022-08-17T09:44:32.191Z,25.64
2022-08-17T09:47:46.805Z,25.31
2022-08-17T09:50:20.176Z,25.41
2022-08-17T09:53:08.008Z,25.47
2022-08-17T09:55:59.282Z,25.56
2022-08-17T09:58:38.997Z,25.55
2022-08-17T10:01:16.678Z,25.82
2022-08-17T10:03:51.049Z,26.18
2022-08-17T10:06:33.877Z,26.35
2022-08-17T10:09:10.464Z,26.31
2022-08-17T10:12:00.530Z,25.90
2022-08-17T10:14:44.439Z,26.13
2022-08-17T10:17:21.634Z,26.19
2022-08-17T10:20:01.183Z,26.57
2022-08-17T10:23:21.083Z,26.46
2022-08-17T10:26:14.558Z,26.22
2022-08-17T10:28:53.263Z,26.49
2022-08-17T10:31:36.565Z,26.42
2022-08-17T10:34:27.301Z,26.84
2022-08-17T10:37:19.825Z,26.93
2022-08-17T10:40:32.569Z,26.91
2022-08-17T10:42:59.356Z,26.87
2022-08-17T10:45:46.099Z,27.04
2022-08-17T10:48:14.001Z,26.89
2022-08-17T10:50:49.702Z,26.89
2022-08-17T10:53:31.913Z,26.70
2022-08-17T10:56:13.954Z,26.68
2022-08-17T10:59:07.246Z,26.79
2022-08-17T11:01:42.173Z,26.79
2022-08-17T11:04:45.698Z,26.99
2022-08-17T11:07:19.159Z,27.32
2022-08-17T11:10:08.617Z,27.30
2022-08-17T11:12:44.212Z,27.53
2022-08-17T11:15:32.379Z,27.68
2022-08-17T11:18:01.526Z,27.48
2022-08-17T11:20:41.455Z,27.17
2022-08-17T11:23:32.694Z,27.07
2022-08-17T11:26:09.431Z,27.19
2022-08-17T11:28:48.696Z,27.69
2022-08-17T11:31:40.190Z,27.65
2022-08-17T11:34:26.516Z,27.64
2022-08-17T11:36:53.309Z,27.35
2022-08-17T11:39:39.739Z,27.55
2022-08-17T11:42:34.440Z,27.71
2022-08-17T11:45:38.610Z,27.87
2022-08-17T11:48:44.555Z,28.02
2022-08-17T11:51:40.593Z,28.10
2022-08-17T11:54:33.450Z,28.34
2022-08-17T11:57:21.612Z,27.96
2022-08-17T11:59:48.376Z,27.77
2022-08-17T12:05:14.356Z,27.64
2022-08-17T12:08:07.505Z,27.41
2022-08-17T12:10:58.898Z,27.23
2022-08-17T12:13:30.608Z,27.20
2022-08-17T12:16:05.818Z,27.63
2022-08-17T12:18:37.418Z,27.84
2022-08-17T12:21:28.690Z,28.10
2022-08-17T12:24:15.619Z,28.65
2022-08-17T12:26:44.239Z,28.54
2022-08-17T12:29:38.932Z,28.26
2022-08-17T12:32:13.143Z,28.44
2022-08-17T12:34:43.439Z,28.63
2022-08-17T12:37:24.982Z,28.94
2022-08-17T12:40:24.780Z,28.84
2022-08-17T12:43:18.674Z,28.74
2022-08-17T12:45:54.019Z,28.90
2022-08-17T12:48:26.302Z,28.28
2022-08-17T12:51:00.948Z,27.98
2022-08-17T12:53:35.252Z,27.69
2022-08-17T12:56:07.906Z,27.33
2022-08-17T12:58:45.735Z,27.23
2022-08-17T13:01:18.594Z,27.05
2022-08-17T13:03:52.818Z,27.16
2022-08-17T13:07:00.075Z,26.99
2022-08-17T13:09:35.257Z,27.05
2022-08-17T13:12:05.089Z,27.37
2022-08-17T13:14:33.373Z,28.17
2022-08-17T13:17:02.587Z,28.81
2022-08-17T13:19:40.360Z,28.95
2022-08-17T13:22:12.463Z,29.01
2022-08-17T13:24:53.234Z,29.15
2022-08-17T13:27:23.901Z,29.49
2022-08-17T13:29:54.170Z,29.45
2022-08-17T13:32:32.851Z,29.94
2022-08-17T13:35:11.931Z,30.26
2022-08-17T13:37:43.402Z,30.51
2022-08-17T13:40:12.731Z,30.61
2022-08-17T13:42:51.822Z,30.72
2022-08-17T13:45:35.637Z,29.63
2022-08-17T13:48:07.396Z,28.23
2022-08-17T13:50:36.228Z,27.76
2022-08-17T13:53:15.022Z,27.55
2022-08-17T13:55:48.958Z,27.53
2022-08-17T13:58:21.975Z,27.87
2022-08-17T14:00:50.754Z,28.96
2022-08-17T14:03:18.182Z,28.92
2022-08-17T14:05:46.138Z,28.61
2022-08-17T14:08:15.722Z,29.15
2022-08-17T14:10:43.733Z,28.71
2022-08-17T14:13:10.873Z,28.58
2022-08-17T14:15:56.124Z,27.85
2022-08-17T14:18:31.135Z,27.60
2022-08-17T14:21:10.761Z,27.52
2022-08-17T14:23:37.711Z,27.80
2022-08-17T14:26:04.954Z,27.68
2022-08-17T14:28:32.085Z,27.70
2022-08-17T14:31:00.447Z,27.68
2022-08-17T14:33:28.710Z,27.62
2022-08-17T14:35:56.069Z,27.66
2022-08-17T14:38:22.862Z,27.24
2022-08-17T14:40:49.863Z,26.33
2022-08-17T14:43:17.992Z,24.38
2022-08-17T14:45:48.002Z,23.94
2022-08-17T14:48:14.834Z,24.15
2022-08-17T14:50:43.565Z,24.30
2022-08-17T14:53:13.705Z,24.22
2022-08-17T14:55:43.063Z,24.08
2022-08-17T14:58:10.457Z,23.79
2022-08-17T15:00:43.792Z,23.95
2022-08-17T15:03:11.867Z,23.81
2022-08-17T15:05:39.320Z,23.71
2022-08-17T15:08:24.126Z,23.70
2022-08-17T15:10:54.282Z,23.98
2022-08-17T15:13:27.757Z,24.63
2022-08-17T15:15:54.859Z,24.07
2022-08-17T15:18:21.789Z,23.99
2022-08-17T15:20:50.183Z,23.94
2022-08-17T15:23:20.778Z,23.93
2022-08-17T15:25:53.675Z,24.03
2022-08-17T15:28:23.294Z,23.97
2022-08-17T15:30:51.357Z,23.79
2022-08-17T15:33:33.570Z,23.81
2022-08-17T15:36:03.705Z,23.92
2022-08-17T15:38:34.068Z,24.06
2022-08-17T15:41:35.733Z,24.06
2022-08-17T15:44:03.000Z,23.85
2022-08-17T15:46:29.707Z,23.92
2022-08-17T15:49:05.761Z,23.88
2022-08-17T15:51:35.684Z,23.89
2022-08-17T15:54:17.258Z,23.64
2022-08-17T15:56:48.018Z,23.51
2022-08-17T15:59:14.723Z,23.46
2022-08-17T16:03:14.041Z,23.60
2022-08-17T16:04:30.867Z,23.54
2022-08-17T16:06:59.728Z,23.52
2022-08-17T16:09:26.588Z,23.56
2022-08-17T16:11:55.445Z,23.39
2022-08-17T16:14:24.077Z,23.15
2022-08-17T16:16:54.306Z,23.23
2022-08-17T16:19:21.044Z,23.40
2022-08-17T16:21:47.791Z,23.55
2022-08-17T16:24:14.875Z,23.77
2022-08-17T16:26:42.824Z,23.85
2022-08-17T16:29:10.781Z,23.69
2022-08-17T16:31:41.990Z,23.54
2022-08-17T16:34:17.482Z,23.34
2022-08-17T16:36:55.168Z,23.28
2022-08-17T16:39:28.420Z,23.13
2022-08-17T16:41:56.700Z,23.03
2022-08-17T16:44:23.554Z,22.94
2022-08-17T16:46:50.655Z,22.79
2022-08-17T16:49:35.146Z,22.67
2022-08-17T16:52:03.962Z,22.74
2022-08-17T16:54:30.699Z,22.76
2022-08-17T16:56:57.406Z,22.74
2022-08-17T16:59:31.180Z,22.76
2022-08-17T17:05:31.277Z,22.78
2022-08-17T17:08:04.143Z,22.66
2022-08-17T17:10:49.448Z,22.61
2022-08-17T17:13:25.187Z,22.59
2022-08-17T17:16:06.660Z,22.66
2022-08-17T17:19:05.035Z,22.51
2022-08-17T17:22:01.632Z,22.51
2022-08-17T17:24:39.916Z,22.43
2022-08-17T17:27:20.325Z,22.36
2022-08-17T17:30:07.777Z,22.26
2022-08-17T17:33:00.759Z,21.96
2022-08-17T17:35:53.891Z,21.76
2022-08-17T17:38:29.212Z,21.75
2022-08-17T17:41:07.612Z,21.72
2022-08-17T17:43:39.687Z,21.66
2022-08-17T17:46:28.554Z,21.50
2022-08-17T17:49:00.552Z,21.35
2022-08-17T17:52:08.001Z,21.32
2022-08-17T17:55:04.460Z,21.38
2022-08-17T17:57:37.185Z,21.58
2022-08-17T18:00:15.605Z,21.63
2022-08-17T18:02:54.153Z,21.46
2022-08-17T18:05:47.673Z,21.39
2022-08-17T18:08:32.090Z,21.25
2022-08-17T18:11:24.136Z,21.24
2022-08-17T18:14:02.490Z,21.15
2022-08-17T18:16:32.886Z,21.19
2022-08-17T18:19:00.770Z,21.21
2022-08-17T18:21:40.155Z,21.13
2022-08-17T18:24:10.783Z,21.22
2022-08-17T18:26:50.619Z,21.34
2022-08-17T18:29:31.976Z,21.24
2022-08-17T18:32:16.915Z,21.20
2022-08-17T18:34:49.518Z,21.11
2022-08-17T18:37:45.592Z,21.21
2022-08-17T18:40:20.748Z,21.26
2022-08-17T18:43:14.200Z,21.33
2022-08-17T18:45:53.558Z,21.32
2022-08-17T18:48:33.890Z,21.32
2022-08-17T18:51:40.366Z,21.30
2022-08-17T18:54:23.752Z,21.18
2022-08-17T18:56:50.476Z,21.04
2022-08-17T18:59:28.854Z,21.03
2022-08-17T19:02:45.085Z,21.01
2022-08-17T19:05:13.556Z,20.90
2022-08-17T19:07:46.735Z,20.93
2022-08-17T19:10:46.121Z,20.96
2022-08-17T19:13:24.299Z,20.89
2022-08-17T19:16:15.745Z,20.94
2022-08-17T19:18:52.654Z,20.93
2022-08-17T19:21:25.639Z,20.88
2022-08-17T19:24:22.631Z,20.90
2022-08-17T19:26:58.942Z,20.85
2022-08-17T19:29:37.501Z,20.80
2022-08-17T19:32:07.073Z,20.73
2022-08-17T19:34:36.984Z,20.70
2022-08-17T19:37:12.685Z,20.69
2022-08-17T19:39:50.483Z,20.71
2022-08-17T19:42:55.562Z,20.68
2022-08-17T19:45:56.241Z,20.57
2022-08-17T19:48:40.946Z,20.57
2022-08-17T19:51:17.766Z,20.65
2022-08-17T19:54:16.140Z,20.61
2022-08-17T19:57:20.294Z,20.55
2022-08-17T20:00:13.621Z,20.51
2022-08-17T20:03:07.533Z,20.49
2022-08-17T20:06:01.414Z,20.50
2022-08-17T20:08:39.406Z,20.46
2022-08-17T20:11:31.486Z,20.45
2022-08-17T20:14:14.946Z,20.48
2022-08-17T20:16:41.858Z,20.53
2022-08-17T20:19:19.850Z,20.55
2022-08-17T20:21:54.056Z,20.54
2022-08-17T20:24:25.785Z,20.55
2022-08-17T20:26:59.972Z,20.50
2022-08-17T20:29:51.728Z,20.50
2022-08-17T20:32:28.750Z,20.49
2022-08-17T20:35:41.890Z,20.52
2022-08-17T20:38:36.235Z,20.61
2022-08-17T20:41:03.968Z,20.57
2022-08-17T20:43:33.652Z,20.55
2022-08-17T20:46:10.358Z,20.54
2022-08-17T20:48:42.790Z,20.56
2022-08-17T20:51:33.366Z,20.58
2022-08-17T20:54:07.548Z,20.55
2022-08-17T20:56:43.578Z,20.51
2022-08-17T20:59:25.999Z,20.49
2022-08-17T21:02:18.743Z,20.47
2022-08-17T21:04:53.039Z,20.41
2022-08-17T21:07:41.189Z,20.34
2022-08-17T21:10:10.520Z,20.34
2022-08-17T21:13:08.200Z,20.27
2022-08-17T21:16:08.975Z,20.18
2022-08-17T21:18:52.875Z,20.25
2022-08-17T21:21:41.250Z,20.26
2022-08-17T21:24:28.200Z,20.26
2022-08-17T21:27:05.445Z,20.24
2022-08-17T21:29:38.421Z,20.22
2022-08-17T21:32:09.511Z,20.17
2022-08-17T21:34:43.753Z,20.16
2022-08-17T21:37:23.541Z,20.12
2022-08-17T21:40:19.106Z,20.11
2022-08-17T21:42:49.517Z,20.08
2022-08-17T21:45:29.069Z,20.05
2022-08-17T21:48:11.609Z,20.04
2022-08-17T21:50:41.683Z,20.03
2022-08-17T21:53:22.011Z,20.10
2022-08-17T21:55:50.331Z,20.07
2022-08-17T21:58:33.418Z,20.00
2022-08-17T22:01:28.693Z,19.93
2022-08-17T22:03:58.804Z,19.91
2022-08-17T22:06:35.972Z,19.89
2022-08-17T22:09:25.776Z,19.92
2022-08-17T22:12:04.728Z,19.88
2022-08-17T22:14:53.095Z,19.81
2022-08-17T22:17:28.661Z,19.80
2022-08-17T22:20:01.996Z,19.79
2022-08-17T22:22:34.508Z,19.87
2022-08-17T22:25:05.793Z,19.88
2022-08-17T22:27:54.707Z,19.90
2022-08-17T22:30:27.565Z,19.96
2022-08-17T22:32:55.514Z,20.03
2022-08-17T22:35:42.270Z,19.98
2022-08-17T22:38:21.170Z,20.03
2022-08-17T22:40:50.947Z,20.05
2022-08-17T22:43:25.873Z,20.18
2022-08-17T22:45:57.510Z,20.15
2022-08-17T22:48:27.562Z,20.10
2022-08-17T22:51:12.578Z,20.00
2022-08-17T22:54:08.658Z,19.95
2022-08-17T22:56:54.745Z,19.98
2022-08-17T23:00:00.679Z,20.02
2022-08-17T23:02:34.422Z,19.92
2022-08-17T23:05:10.255Z,19.81
2022-08-17T23:07:37.149Z,19.90
2022-08-17T23:10:06.591Z,19.86
2022-08-17T23:12:39.005Z,19.86
2022-08-17T23:15:14.442Z,19.82
2022-08-17T23:17:42.183Z,19.89
2022-08-17T23:20:14.160Z,19.92
2022-08-17T23:22:52.577Z,19.92
2022-08-17T23:25:27.891Z,19.93
2022-08-17T23:27:55.324Z,19.81
2022-08-17T23:30:25.445Z,19.77
2022-08-17T23:32:54.318Z,19.79
2022-08-17T23:35:39.917Z,19.80
2022-08-17T23:38:09.380Z,19.73
2022-08-17T23:40:36.503Z,19.73
2022-08-17T23:43:09.807Z,19.67
2022-08-17T23:45:44.353Z,19.64
2022-08-17T23:48:11.080Z,19.73
2022-08-17T23:50:38.429Z,19.77
2022-08-17T23:53:06.663Z,19.69
2022-08-17T23:55:34.719Z,19.72
2022-08-17T23:58:02.866Z,19.70
